sensor_id;sensor_type;location;lat;lon;timestamp;pressure;altitude;pressure_sealevel;temperature;humidity
6032;BME280;3044;43.232;27.972;2023-06-22T00:00:50;45035.75;;;-143.84;63.11
6032;BME280;3044;43.232;27.972;2023-06-22T00:03:18;45043.34;;;-143.84;63.28
6032;BME280;3044;43.232;27.972;2023-06-22T00:05:46;45052.88;;;-143.84;63.55
6032;BME280;3044;43.232;27.972;2023-06-22T00:08:13;45066.22;;;-143.84;62.94
6032;BME280;3044;43.232;27.972;2023-06-22T00:10:41;45058.59;;;-143.84;63.19
6032;BME280;3044;43.232;27.972;2023-06-22T00:13:10;45064.31;;;-143.84;63.14
6032;BME280;3044;43.232;27.972;2023-06-22T00:15:38;45060.50;;;-143.84;63.20
6032;BME280;3044;43.232;27.972;2023-06-22T00:18:06;45010.97;;;-143.84;63.21
6032;BME280;3044;43.232;27.972;2023-06-22T00:20:33;45071.91;;;-143.84;62.83
6032;BME280;3044;43.232;27.972;2023-06-22T00:23:03;45050.97;;;-143.84;62.64
6032;BME280;3044;43.232;27.972;2023-06-22T00:25:33;45056.69;;;-143.84;62.66
6032;BME280;3044;43.232;27.972;2023-06-22T00:28:00;45045.25;;;-143.84;62.42
6032;BME280;3044;43.232;27.972;2023-06-22T00:30:30;45047.16;;;-143.84;61.96
6032;BME280;3044;43.232;27.972;2023-06-22T00:32:57;45039.53;;;-143.84;62.20
6032;BME280;3044;43.232;27.972;2023-06-22T00:35:24;45049.06;;;-143.84;62.46
6032;BME280;3044;43.232;27.972;2023-06-22T00:37:55;45052.88;;;-143.84;62.46
6032;BME280;3044;43.232;27.972;2023-06-22T00:40:26;45031.94;;;-143.84;62.95
6032;BME280;3044;43.232;27.972;2023-06-22T00:42:54;45039.53;;;-143.84;63.17
6032;BME280;3044;43.232;27.972;2023-06-22T00:45:21;45056.69;;;-143.84;63.51
6032;BME280;3044;43.232;27.972;2023-06-22T00:47:52;45058.59;;;-143.84;63.17
6032;BME280;3044;43.232;27.972;2023-06-22T00:50:21;45035.75;;;-143.84;62.92
6032;BME280;3044;43.232;27.972;2023-06-22T00:52:51;45043.34;;;-143.84;63.25
6032;BME280;3044;43.232;27.972;2023-06-22T00:55:20;45075.72;;;-143.84;63.11
6032;BME280;3044;43.232;27.972;2023-06-22T00:57:48;45037.66;;;-143.84;62.98
6032;BME280;3044;43.232;27.972;2023-06-22T01:00:15;45052.88;;;-143.84;62.86
6032;BME280;3044;43.232;27.972;2023-06-22T01:02:46;45049.06;;;-143.84;63.05
6032;BME280;3044;43.232;27.972;2023-06-22T01:05:19;45071.91;;;-143.84;62.87
6032;BME280;3044;43.232;27.972;2023-06-22T01:07:56;45050.97;;;-143.84;63.20
6032;BME280;3044;43.232;27.972;2023-06-22T01:10:31;45052.88;;;-143.84;63.06
6032;BME280;3044;43.232;27.972;2023-06-22T01:13:16;45039.53;;;-143.84;63.21
6032;BME280;3044;43.232;27.972;2023-06-22T01:15:45;45062.41;;;-143.84;63.60
6032;BME280;3044;43.232;27.972;2023-06-22T01:18:17;45052.88;;;-143.84;63.46
6032;BME280;3044;43.232;27.972;2023-06-22T01:20:47;45058.59;;;-143.84;63.61
6032;BME280;3044;43.232;27.972;2023-06-22T01:23:25;45035.75;;;-143.84;64.11
6032;BME280;3044;43.232;27.972;2023-06-22T01:26:01;45039.53;;;-143.84;64.08
6032;BME280;3044;43.232;27.972;2023-06-22T01:28:43;45037.66;;;-143.84;63.84
6032;BME280;3044;43.232;27.972;2023-06-22T01:31:14;45062.41;;;-143.84;63.80
6032;BME280;3044;43.232;27.972;2023-06-22T01:33:43;45041.44;;;-143.84;64.05
6032;BME280;3044;43.232;27.972;2023-06-22T01:36:13;45071.91;;;-143.84;64.17
6032;BME280;3044;43.232;27.972;2023-06-22T01:38:42;45068.13;;;-143.84;64.40
6032;BME280;3044;43.232;27.972;2023-06-22T01:41:09;45033.84;;;-143.84;64.33
6032;BME280;3044;43.232;27.972;2023-06-22T01:43:36;45054.78;;;-143.84;64.82
6032;BME280;3044;43.232;27.972;2023-06-22T01:46:05;45062.41;;;-143.84;65.05
6032;BME280;3044;43.232;27.972;2023-06-22T01:48:32;45064.31;;;-143.84;65.13
6032;BME280;3044;43.232;27.972;2023-06-22T01:51:00;45054.78;;;-143.84;65.36
6032;BME280;3044;43.232;27.972;2023-06-22T01:53:27;45062.41;;;-143.84;65.45
6032;BME280;3044;43.232;27.972;2023-06-22T01:55:55;45041.44;;;-143.84;65.29
6032;BME280;3044;43.232;27.972;2023-06-22T01:58:25;45039.53;;;-143.84;65.37
6032;BME280;3044;43.232;27.972;2023-06-22T02:00:57;45033.84;;;-143.84;65.63
6032;BME280;3044;43.232;27.972;2023-06-22T02:03:31;45070.00;;;-143.84;66.41
6032;BME280;3044;43.232;27.972;2023-06-22T02:06:04;45047.16;;;-143.84;66.65
6032;BME280;3044;43.232;27.972;2023-06-22T02:08:37;45031.94;;;-143.84;67.32
6032;BME280;3044;43.232;27.972;2023-06-22T02:11:05;45045.25;;;-143.84;67.67
6032;BME280;3044;43.232;27.972;2023-06-22T02:13:34;45030.03;;;-143.84;67.38
6032;BME280;3044;43.232;27.972;2023-06-22T02:16:02;45050.97;;;-143.84;67.61
6032;BME280;3044;43.232;27.972;2023-06-22T02:18:30;45054.78;;;-143.84;68.09
6032;BME280;3044;43.232;27.972;2023-06-22T02:20:57;45068.13;;;-143.84;68.06
6032;BME280;3044;43.232;27.972;2023-06-22T02:23:25;45041.44;;;-143.84;68.24
6032;BME280;3044;43.232;27.972;2023-06-22T02:25:52;45056.69;;;-143.84;67.96
6032;BME280;3044;43.232;27.972;2023-06-22T02:28:19;45079.53;;;-143.84;67.92
6032;BME280;3044;43.232;27.972;2023-06-22T02:30:46;45068.13;;;-143.84;67.70
6032;BME280;3044;43.232;27.972;2023-06-22T02:33:13;45081.44;;;-143.84;67.41
6032;BME280;3044;43.232;27.972;2023-06-22T02:35:42;45064.31;;;-143.84;66.59
6032;BME280;3044;43.232;27.972;2023-06-22T02:38:11;45054.78;;;-143.84;67.16
6032;BME280;3044;43.232;27.972;2023-06-22T02:40:38;45064.31;;;-143.84;67.35
6032;BME280;3044;43.232;27.972;2023-06-22T02:43:05;45070.00;;;-143.84;67.64
6032;BME280;3044;43.232;27.972;2023-06-22T02:45:32;45066.22;;;-143.84;67.69
6032;BME280;3044;43.232;27.972;2023-06-22T02:47:59;45041.44;;;-143.84;67.15
6032;BME280;3044;43.232;27.972;2023-06-22T02:50:26;45073.81;;;-143.84;67.58
6032;BME280;3044;43.232;27.972;2023-06-22T02:52:55;45071.91;;;-143.84;66.93
6032;BME280;3044;43.232;27.972;2023-06-22T02:55:22;45041.44;;;-143.84;66.74
6032;BME280;3044;43.232;27.972;2023-06-22T02:57:49;45073.81;;;-143.84;66.32
6032;BME280;3044;43.232;27.972;2023-06-22T03:00:19;45075.72;;;-143.84;65.83
6032;BME280;3044;43.232;27.972;2023-06-22T03:02:47;45071.91;;;-143.84;65.63
6032;BME280;3044;43.232;27.972;2023-06-22T03:05:15;45081.44;;;-143.84;65.79
6032;BME280;3044;43.232;27.972;2023-06-22T03:07:44;45039.53;;;-143.84;65.99
6032;BME280;3044;43.232;27.972;2023-06-22T03:10:13;45066.22;;;-143.84;65.78
6032;BME280;3044;43.232;27.972;2023-06-22T03:12:41;45045.25;;;-143.84;65.54
6032;BME280;3044;43.232;27.972;2023-06-22T03:15:10;45049.06;;;-143.84;65.28
6032;BME280;3044;43.232;27.972;2023-06-22T03:17:38;45052.88;;;-143.84;64.66
6032;BME280;3044;43.232;27.972;2023-06-22T03:20:07;45077.63;;;-143.84;64.81
6032;BME280;3044;43.232;27.972;2023-06-22T03:22:36;45066.22;;;-143.84;64.77
6032;BME280;3044;43.232;27.972;2023-06-22T03:25:04;45085.25;;;-143.84;64.17
6032;BME280;3044;43.232;27.972;2023-06-22T03:27:36;45058.59;;;-143.84;63.68
6032;BME280;3044;43.232;27.972;2023-06-22T03:30:05;45047.16;;;-143.84;63.52
6032;BME280;3044;43.232;27.972;2023-06-22T03:32:32;45047.16;;;-143.84;63.44
6032;BME280;3044;43.232;27.972;2023-06-22T03:34:59;45056.69;;;-143.84;63.92
6032;BME280;3044;43.232;27.972;2023-06-22T03:37:27;45043.34;;;-143.84;63.77
6032;BME280;3044;43.232;27.972;2023-06-22T03:39:54;45033.84;;;-143.84;63.54
6032;BME280;3044;43.232;27.972;2023-06-22T03:42:21;45045.25;;;-143.84;62.56
6032;BME280;3044;43.232;27.972;2023-06-22T03:44:50;45035.75;;;-143.84;60.29
6032;BME280;3044;43.232;27.972;2023-06-22T03:47:17;45028.13;;;-143.84;57.62
6032;BME280;3044;43.232;27.972;2023-06-22T03:49:44;45039.53;;;-143.84;54.49
6032;BME280;3044;43.232;27.972;2023-06-22T03:52:11;44995.75;;;-143.84;53.06
6032;BME280;3044;43.232;27.972;2023-06-22T03:54:38;45007.19;;;-143.84;51.25
6032;BME280;3044;43.232;27.972;2023-06-22T03:57:06;45010.97;;;-143.84;50.90
6032;BME280;3044;43.232;27.972;2023-06-22T03:59:33;45003.38;;;-143.84;50.55
6032;BME280;3044;43.232;27.972;2023-06-22T04:02:01;44991.94;;;-143.84;50.16
6032;BME280;3044;43.232;27.972;2023-06-22T04:04:29;45033.84;;;-143.84;49.59
6032;BME280;3044;43.232;27.972;2023-06-22T04:06:56;45026.22;;;-143.84;50.01
6032;BME280;3044;43.232;27.972;2023-06-22T04:09:23;45012.88;;;-143.84;50.91
6032;BME280;3044;43.232;27.972;2023-06-22T04:11:51;45007.19;;;-143.84;51.73
6032;BME280;3044;43.232;27.972;2023-06-22T04:14:18;45030.03;;;-143.84;51.93
6032;BME280;3044;43.232;27.972;2023-06-22T04:16:45;45037.66;;;-143.84;51.69
6032;BME280;3044;43.232;27.972;2023-06-22T04:19:13;45026.22;;;-143.84;51.77
6032;BME280;3044;43.232;27.972;2023-06-22T04:21:42;45020.50;;;-143.84;51.36
6032;BME280;3044;43.232;27.972;2023-06-22T04:24:10;45009.09;;;-143.84;50.89
6032;BME280;3044;43.232;27.972;2023-06-22T04:26:37;44997.66;;;-143.84;50.03
6032;BME280;3044;43.232;27.972;2023-06-22T04:29:07;45007.19;;;-143.84;49.70
6032;BME280;3044;43.232;27.972;2023-06-22T04:31:34;45007.19;;;-143.84;49.81
6032;BME280;3044;43.232;27.972;2023-06-22T04:34:02;45007.19;;;-143.84;49.38
6032;BME280;3044;43.232;27.972;2023-06-22T04:36:34;44999.56;;;-143.84;49.14
6032;BME280;3044;43.232;27.972;2023-06-22T04:39:04;44993.84;;;-143.84;48.66
6032;BME280;3044;43.232;27.972;2023-06-22T04:41:32;44993.84;;;-143.84;48.32
6032;BME280;3044;43.232;27.972;2023-06-22T04:44:09;45012.88;;;-143.84;47.47
6032;BME280;3044;43.232;27.972;2023-06-22T04:46:36;45022.41;;;-143.84;47.15
6032;BME280;3044;43.232;27.972;2023-06-22T04:49:05;45003.38;;;-143.84;47.35
6032;BME280;3044;43.232;27.972;2023-06-22T04:51:39;44999.56;;;-143.84;47.03
6032;BME280;3044;43.232;27.972;2023-06-22T04:54:08;45003.38;;;-143.84;46.89
6032;BME280;3044;43.232;27.972;2023-06-22T04:56:35;44995.75;;;-143.84;45.72
6032;BME280;3044;43.232;27.972;2023-06-22T04:59:02;44986.22;;;-143.84;45.27
6032;BME280;3044;43.232;27.972;2023-06-22T05:01:29;44999.56;;;-143.84;43.53
6032;BME280;3044;43.232;27.972;2023-06-22T05:03:57;44955.75;;;-143.84;42.99
6032;BME280;3044;43.232;27.972;2023-06-22T05:06:27;44959.56;;;-143.84;42.46
6032;BME280;3044;43.232;27.972;2023-06-22T05:08:57;44948.16;;;-143.84;41.97
6032;BME280;3044;43.232;27.972;2023-06-22T05:11:25;44944.34;;;-143.84;41.67
6032;BME280;3044;43.232;27.972;2023-06-22T05:13:52;44927.19;;;-143.84;41.55
6032;BME280;3044;43.232;27.972;2023-06-22T05:16:20;44931.00;;;-143.84;40.49
6032;BME280;3044;43.232;27.972;2023-06-22T05:18:51;44910.06;;;-143.84;39.92
6032;BME280;3044;43.232;27.972;2023-06-22T05:21:21;44906.25;;;-143.84;39.14
6032;BME280;3044;43.232;27.972;2023-06-22T05:23:49;44917.69;;;-143.84;39.30
6032;BME280;3044;43.232;27.972;2023-06-22T05:26:18;44910.06;;;-143.84;38.32
6032;BME280;3044;43.232;27.972;2023-06-22T05:28:46;44898.66;;;-143.84;39.02
6032;BME280;3044;43.232;27.972;2023-06-22T05:31:13;44910.06;;;-143.84;38.01
6032;BME280;3044;43.232;27.972;2023-06-22T05:33:41;44919.59;;;-143.84;38.17
6032;BME280;3044;43.232;27.972;2023-06-22T05:36:08;44871.97;;;-143.84;37.16
6032;BME280;3044;43.232;27.972;2023-06-22T05:38:35;44881.50;;;-143.84;37.83
6032;BME280;3044;43.232;27.972;2023-06-22T05:41:03;44883.41;;;-143.84;37.48
6032;BME280;3044;43.232;27.972;2023-06-22T05:43:32;44892.94;;;-143.84;37.25
6032;BME280;3044;43.232;27.972;2023-06-22T05:46:00;44883.41;;;-143.84;36.76
6032;BME280;3044;43.232;27.972;2023-06-22T05:48:27;44862.47;;;-143.84;35.93
6032;BME280;3044;43.232;27.972;2023-06-22T05:50:55;44892.94;;;-143.84;36.83
6032;BME280;3044;43.232;27.972;2023-06-22T05:53:22;44873.88;;;-143.84;36.44
6032;BME280;3044;43.232;27.972;2023-06-22T05:55:49;44854.84;;;-143.84;35.90
6032;BME280;3044;43.232;27.972;2023-06-22T05:58:16;44858.66;;;-143.84;36.22
6032;BME280;3044;43.232;27.972;2023-06-22T06:00:45;44871.97;;;-143.84;35.68
6032;BME280;3044;43.232;27.972;2023-06-22T06:03:12;44868.19;;;-143.84;35.17
6032;BME280;3044;43.232;27.972;2023-06-22T06:05:43;44873.88;;;-143.84;35.45
6032;BME280;3044;43.232;27.972;2023-06-22T06:08:10;44843.44;;;-143.84;35.14
6032;BME280;3044;43.232;27.972;2023-06-22T06:10:38;44871.97;;;-143.84;34.97
6032;BME280;3044;43.232;27.972;2023-06-22T06:13:05;44849.13;;;-143.84;35.84
6032;BME280;3044;43.232;27.972;2023-06-22T06:15:34;44845.31;;;-143.84;35.06
6032;BME280;3044;43.232;27.972;2023-06-22T06:18:02;44868.19;;;-143.84;35.25
6032;BME280;3044;43.232;27.972;2023-06-22T06:20:31;44877.69;;;-143.84;35.08
6032;BME280;3044;43.232;27.972;2023-06-22T06:22:58;44852.94;;;-143.84;36.31
6032;BME280;3044;43.232;27.972;2023-06-22T06:25:25;44841.53;;;-143.84;35.34
6032;BME280;3044;43.232;27.972;2023-06-22T06:27:53;44832.00;;;-143.84;35.16
6032;BME280;3044;43.232;27.972;2023-06-22T06:30:22;44809.16;;;-143.84;34.63
6032;BME280;3044;43.232;27.972;2023-06-22T06:32:49;44830.09;;;-143.84;34.27
6032;BME280;3044;43.232;27.972;2023-06-22T06:35:18;44830.09;;;-143.84;34.30
6032;BME280;3044;43.232;27.972;2023-06-22T06:37:47;44803.44;;;-143.84;34.81
6032;BME280;3044;43.232;27.972;2023-06-22T06:40:16;44824.38;;;-143.84;34.74
6032;BME280;3044;43.232;27.972;2023-06-22T06:42:44;44835.81;;;-143.84;34.30
6032;BME280;3044;43.232;27.972;2023-06-22T06:45:12;44824.38;;;-143.84;34.25
6032;BME280;3044;43.232;27.972;2023-06-22T06:47:40;44841.53;;;-143.84;34.09
6032;BME280;3044;43.232;27.972;2023-06-22T06:50:08;44830.09;;;-143.84;33.85
6032;BME280;3044;43.232;27.972;2023-06-22T06:52:37;44820.56;;;-143.84;33.78
6032;BME280;3044;43.232;27.972;2023-06-22T06:55:05;44799.63;;;-143.84;34.56
6032;BME280;3044;43.232;27.972;2023-06-22T06:57:36;44786.31;;;-143.84;33.88
6032;BME280;3044;43.232;27.972;2023-06-22T07:00:07;44830.09;;;-143.84;33.87
6032;BME280;3044;43.232;27.972;2023-06-22T07:02:38;44822.47;;;-143.84;33.85
6032;BME280;3044;43.232;27.972;2023-06-22T07:05:07;44795.81;;;-143.84;33.14
6032;BME280;3044;43.232;27.972;2023-06-22T07:07:34;44818.66;;;-143.84;33.63
6032;BME280;3044;43.232;27.972;2023-06-22T07:10:03;44799.63;;;-143.84;33.48
6032;BME280;3044;43.232;27.972;2023-06-22T07:12:30;44797.72;;;-143.84;32.21
6032;BME280;3044;43.232;27.972;2023-06-22T07:15:02;44839.63;;;-143.84;32.79
6032;BME280;3044;43.232;27.972;2023-06-22T07:17:29;44820.56;;;-143.84;33.70
6032;BME280;3044;43.232;27.972;2023-06-22T07:19:56;44830.09;;;-143.84;33.80
6032;BME280;3044;43.232;27.972;2023-06-22T07:22:23;44839.63;;;-143.84;33.49
6032;BME280;3044;43.232;27.972;2023-06-22T07:24:50;44833.91;;;-143.84;32.88
6032;BME280;3044;43.232;27.972;2023-06-22T07:27:19;44832.00;;;-143.84;33.55
6032;BME280;3044;43.232;27.972;2023-06-22T07:29:46;44845.31;;;-143.84;32.72
6032;BME280;3044;43.232;27.972;2023-06-22T07:32:14;44830.09;;;-143.84;32.92
6032;BME280;3044;43.232;27.972;2023-06-22T07:34:41;44837.72;;;-143.84;33.52
6032;BME280;3044;43.232;27.972;2023-06-22T07:37:09;44828.19;;;-143.84;34.04
6032;BME280;3044;43.232;27.972;2023-06-22T07:39:36;44832.00;;;-143.84;32.92
6032;BME280;3044;43.232;27.972;2023-06-22T07:42:03;44843.44;;;-143.84;32.74
6032;BME280;3044;43.232;27.972;2023-06-22T07:44:32;44835.81;;;-143.84;32.82
6032;BME280;3044;43.232;27.972;2023-06-22T07:46:59;44828.19;;;-143.84;33.62
6032;BME280;3044;43.232;27.972;2023-06-22T07:49:27;44852.94;;;-143.84;33.26
6032;BME280;3044;43.232;27.972;2023-06-22T07:51:55;44812.97;;;-143.84;32.93
6032;BME280;3044;43.232;27.972;2023-06-22T07:54:22;44832.00;;;-143.84;33.63
6032;BME280;3044;43.232;27.972;2023-06-22T07:56:49;44807.25;;;-143.84;31.85
6032;BME280;3044;43.232;27.972;2023-06-22T07:59:16;44820.56;;;-143.84;32.69
6032;BME280;3044;43.232;27.972;2023-06-22T08:01:44;44837.72;;;-143.84;34.08
6032;BME280;3044;43.232;27.972;2023-06-22T08:04:14;44812.97;;;-143.84;34.59
6032;BME280;3044;43.232;27.972;2023-06-22T08:06:41;44832.00;;;-143.84;34.98
6032;BME280;3044;43.232;27.972;2023-06-22T08:09:09;44814.88;;;-143.84;35.54
6032;BME280;3044;43.232;27.972;2023-06-22T08:11:36;44793.91;;;-143.84;36.55
6032;BME280;3044;43.232;27.972;2023-06-22T08:14:03;44793.91;;;-143.84;35.44
6032;BME280;3044;43.232;27.972;2023-06-22T08:16:30;44811.06;;;-143.84;34.99
6032;BME280;3044;43.232;27.972;2023-06-22T08:18:58;44828.19;;;-143.84;35.39
6032;BME280;3044;43.232;27.972;2023-06-22T08:21:25;44799.63;;;-143.84;34.44
6032;BME280;3044;43.232;27.972;2023-06-22T08:23:53;44812.97;;;-143.84;34.97
6032;BME280;3044;43.232;27.972;2023-06-22T08:26:20;44803.44;;;-143.84;34.58
6032;BME280;3044;43.232;27.972;2023-06-22T08:28:49;44782.50;;;-143.84;35.05
6032;BME280;3044;43.232;27.972;2023-06-22T08:31:16;44795.81;;;-143.84;34.22
6032;BME280;3044;43.232;27.972;2023-06-22T08:33:43;44828.19;;;-143.84;33.78
6032;BME280;3044;43.232;27.972;2023-06-22T08:36:13;44807.25;;;-143.84;34.25
6032;BME280;3044;43.232;27.972;2023-06-22T08:38:40;44788.22;;;-143.84;36.22
6032;BME280;3044;43.232;27.972;2023-06-22T08:41:07;44832.00;;;-143.84;34.90
6032;BME280;3044;43.232;27.972;2023-06-22T08:43:34;44818.66;;;-143.84;35.90
6032;BME280;3044;43.232;27.972;2023-06-22T08:46:01;44797.72;;;-143.84;34.80
6032;BME280;3044;43.232;27.972;2023-06-22T08:48:29;44803.44;;;-143.84;36.02
6032;BME280;3044;43.232;27.972;2023-06-22T08:50:56;44774.88;;;-143.84;35.90
6032;BME280;3044;43.232;27.972;2023-06-22T08:53:24;44812.97;;;-143.84;35.05
6032;BME280;3044;43.232;27.972;2023-06-22T08:55:51;44835.81;;;-143.84;34.42
6032;BME280;3044;43.232;27.972;2023-06-22T08:58:18;44805.34;;;-143.84;35.10
6032;BME280;3044;43.232;27.972;2023-06-22T09:00:46;44797.72;;;-143.84;36.07
6032;BME280;3044;43.232;27.972;2023-06-22T09:03:14;44797.72;;;-143.84;36.70
6032;BME280;3044;43.232;27.972;2023-06-22T09:05:41;44835.81;;;-143.84;37.67
6032;BME280;3044;43.232;27.972;2023-06-22T09:08:08;44854.84;;;-143.84;39.08
6032;BME280;3044;43.232;27.972;2023-06-22T09:10:37;44858.66;;;-143.84;40.86
6032;BME280;3044;43.232;27.972;2023-06-22T09:13:04;44818.66;;;-143.84;41.30
6032;BME280;3044;43.232;27.972;2023-06-22T09:15:31;44866.28;;;-143.84;43.62
6032;BME280;3044;43.232;27.972;2023-06-22T09:17:58;44877.69;;;-143.84;43.95
6032;BME280;3044;43.232;27.972;2023-06-22T09:20:25;44894.84;;;-143.84;44.31
6032;BME280;3044;43.232;27.972;2023-06-22T09:22:52;44892.94;;;-143.84;47.23
6032;BME280;3044;43.232;27.972;2023-06-22T09:25:19;44910.06;;;-143.84;48.36
6032;BME280;3044;43.232;27.972;2023-06-22T09:27:48;44906.25;;;-143.84;47.83
6032;BME280;3044;43.232;27.972;2023-06-22T09:30:15;44936.72;;;-143.84;48.84
6032;BME280;3044;43.232;27.972;2023-06-22T09:32:42;44921.50;;;-143.84;47.26
6032;BME280;3044;43.232;27.972;2023-06-22T09:35:09;44919.59;;;-143.84;49.45
6032;BME280;3044;43.232;27.972;2023-06-22T09:37:39;44896.75;;;-143.84;47.77
6032;BME280;3044;43.232;27.972;2023-06-22T09:40:07;44921.50;;;-143.84;47.53
6032;BME280;3044;43.232;27.972;2023-06-22T09:42:37;44917.69;;;-143.84;47.22
6032;BME280;3044;43.232;27.972;2023-06-22T09:45:06;44898.66;;;-143.84;46.43
6032;BME280;3044;43.232;27.972;2023-06-22T09:47:34;44911.97;;;-143.84;45.83
6032;BME280;3044;43.232;27.972;2023-06-22T09:50:01;44923.41;;;-143.84;44.74
6032;BME280;3044;43.232;27.972;2023-06-22T09:52:28;44881.50;;;-143.84;46.31
6032;BME280;3044;43.232;27.972;2023-06-22T09:54:55;44911.97;;;-143.84;43.44
6032;BME280;3044;43.232;27.972;2023-06-22T09:57:22;44894.84;;;-143.84;44.55
6032;BME280;3044;43.232;27.972;2023-06-22T09:59:49;44902.44;;;-143.84;43.36
6032;BME280;3044;43.232;27.972;2023-06-22T10:02:18;44896.75;;;-143.84;44.68
6032;BME280;3044;43.232;27.972;2023-06-22T10:04:45;44885.31;;;-143.84;45.41
6032;BME280;3044;43.232;27.972;2023-06-22T10:07:12;44889.13;;;-143.84;44.20
6032;BME280;3044;43.232;27.972;2023-06-22T10:09:39;44906.25;;;-143.84;45.82
6032;BME280;3044;43.232;27.972;2023-06-22T10:12:07;44919.59;;;-143.84;44.64
6032;BME280;3044;43.232;27.972;2023-06-22T10:14:34;44929.09;;;-143.84;46.78
6032;BME280;3044;43.232;27.972;2023-06-22T10:17:02;44919.59;;;-143.84;42.07
6032;BME280;3044;43.232;27.972;2023-06-22T10:19:31;44910.06;;;-143.84;42.36
6032;BME280;3044;43.232;27.972;2023-06-22T10:21:58;44910.06;;;-143.84;43.09
6032;BME280;3044;43.232;27.972;2023-06-22T10:24:25;44921.50;;;-143.84;43.82
6032;BME280;3044;43.232;27.972;2023-06-22T10:26:52;44911.97;;;-143.84;43.86
6032;BME280;3044;43.232;27.972;2023-06-22T10:29:20;44896.75;;;-143.84;44.41
6032;BME280;3044;43.232;27.972;2023-06-22T10:31:47;44885.31;;;-143.84;44.10
6032;BME280;3044;43.232;27.972;2023-06-22T10:34:14;44917.69;;;-143.84;44.13
6032;BME280;3044;43.232;27.972;2023-06-22T10:36:43;44902.44;;;-143.84;45.64
6032;BME280;3044;43.232;27.972;2023-06-22T10:39:12;44923.41;;;-143.84;47.06
6032;BME280;3044;43.232;27.972;2023-06-22T10:41:40;44902.44;;;-143.84;49.06
6032;BME280;3044;43.232;27.972;2023-06-22T10:44:07;44927.19;;;-143.84;46.95
6032;BME280;3044;43.232;27.972;2023-06-22T10:46:34;44950.06;;;-143.84;45.73
6032;BME280;3044;43.232;27.972;2023-06-22T10:49:02;44906.25;;;-143.84;47.95
6032;BME280;3044;43.232;27.972;2023-06-22T10:51:29;44923.41;;;-143.84;48.81
6032;BME280;3044;43.232;27.972;2023-06-22T10:53:58;44910.06;;;-143.84;50.58
6032;BME280;3044;43.232;27.972;2023-06-22T10:56:25;44910.06;;;-143.84;48.33
6032;BME280;3044;43.232;27.972;2023-06-22T10:58:52;44942.44;;;-143.84;51.30
6032;BME280;3044;43.232;27.972;2023-06-22T11:01:20;44925.31;;;-143.84;52.50
6032;BME280;3044;43.232;27.972;2023-06-22T11:03:47;44932.91;;;-143.84;52.84
6032;BME280;3044;43.232;27.972;2023-06-22T11:06:14;44951.97;;;-143.84;53.40
6032;BME280;3044;43.232;27.972;2023-06-22T11:08:44;44929.09;;;-143.84;53.08
6032;BME280;3044;43.232;27.972;2023-06-22T11:11:12;44917.69;;;-143.84;49.79
6032;BME280;3044;43.232;27.972;2023-06-22T11:13:39;44948.16;;;-143.84;50.83
6032;BME280;3044;43.232;27.972;2023-06-22T11:16:06;44934.81;;;-143.84;49.74
6032;BME280;3044;43.232;27.972;2023-06-22T11:18:34;44921.50;;;-143.84;49.67
6032;BME280;3044;43.232;27.972;2023-06-22T11:21:01;44936.72;;;-143.84;50.59
6032;BME280;3044;43.232;27.972;2023-06-22T11:23:28;44942.44;;;-143.84;52.36
6032;BME280;3044;43.232;27.972;2023-06-22T11:25:55;44957.66;;;-143.84;54.31
6032;BME280;3044;43.232;27.972;2023-06-22T11:28:24;44963.38;;;-143.84;55.57
6032;BME280;3044;43.232;27.972;2023-06-22T11:30:52;44951.97;;;-143.84;57.22
6032;BME280;3044;43.232;27.972;2023-06-22T11:33:19;44959.56;;;-143.84;56.87
6032;BME280;3044;43.232;27.972;2023-06-22T11:35:46;44950.06;;;-143.84;58.63
6032;BME280;3044;43.232;27.972;2023-06-22T11:38:14;44972.91;;;-143.84;56.36
6032;BME280;3044;43.232;27.972;2023-06-22T11:40:41;44934.81;;;-143.84;53.77
6032;BME280;3044;43.232;27.972;2023-06-22T11:43:08;44906.25;;;-143.84;53.38
6032;BME280;3044;43.232;27.972;2023-06-22T11:45:36;44919.59;;;-143.84;49.40
6032;BME280;3044;43.232;27.972;2023-06-22T11:48:04;44927.19;;;-143.84;48.81
6032;BME280;3044;43.232;27.972;2023-06-22T11:50:31;44927.19;;;-143.84;49.44
6032;BME280;3044;43.232;27.972;2023-06-22T11:53:01;44927.19;;;-143.84;51.09
6032;BME280;3044;43.232;27.972;2023-06-22T11:55:29;44917.69;;;-143.84;49.70
6032;BME280;3044;43.232;27.972;2023-06-22T11:57:57;44913.88;;;-143.84;48.88
6032;BME280;3044;43.232;27.972;2023-06-22T12:00:28;44934.81;;;-143.84;50.25
6032;BME280;3044;43.232;27.972;2023-06-22T12:02:57;44910.06;;;-143.84;50.65
6032;BME280;3044;43.232;27.972;2023-06-22T12:05:24;44927.19;;;-143.84;53.12
6032;BME280;3044;43.232;27.972;2023-06-22T12:07:53;44948.16;;;-143.84;53.78
6032;BME280;3044;43.232;27.972;2023-06-22T12:10:20;44917.69;;;-143.84;51.16
6032;BME280;3044;43.232;27.972;2023-06-22T12:12:48;44942.44;;;-143.84;53.63
6032;BME280;3044;43.232;27.972;2023-06-22T12:15:15;44967.19;;;-143.84;54.86
6032;BME280;3044;43.232;27.972;2023-06-22T12:17:42;44934.81;;;-143.84;53.34
6032;BME280;3044;43.232;27.972;2023-06-22T12:20:11;44927.19;;;-143.84;54.78
6032;BME280;3044;43.232;27.972;2023-06-22T12:22:38;44931.00;;;-143.84;53.47
6032;BME280;3044;43.232;27.972;2023-06-22T12:25:06;44934.81;;;-143.84;52.60
6032;BME280;3044;43.232;27.972;2023-06-22T12:27:34;44940.53;;;-143.84;52.36
6032;BME280;3044;43.232;27.972;2023-06-22T12:30:01;44942.44;;;-143.84;52.03
6032;BME280;3044;43.232;27.972;2023-06-22T12:32:28;44953.88;;;-143.84;53.85
6032;BME280;3044;43.232;27.972;2023-06-22T12:34:56;44967.19;;;-143.84;52.51
6032;BME280;3044;43.232;27.972;2023-06-22T12:37:25;44957.66;;;-143.84;52.79
6032;BME280;3044;43.232;27.972;2023-06-22T12:39:53;44959.56;;;-143.84;53.65
6032;BME280;3044;43.232;27.972;2023-06-22T12:42:21;44953.88;;;-143.84;53.65
6032;BME280;3044;43.232;27.972;2023-06-22T12:44:48;44978.63;;;-143.84;51.57
6032;BME280;3044;43.232;27.972;2023-06-22T12:47:15;44953.88;;;-143.84;50.39
6032;BME280;3044;43.232;27.972;2023-06-22T12:49:42;44974.81;;;-143.84;52.04
6032;BME280;3044;43.232;27.972;2023-06-22T12:52:09;44942.44;;;-143.84;51.86
6032;BME280;3044;43.232;27.972;2023-06-22T12:54:38;44961.47;;;-143.84;50.82